Time;durP1;ratioP1;P1;durP2;ratioP2;P2;SDS_P1;SDS_P2;PMS_P1;PMS_P2;Temp;Humidity;BMP_temperature;BMP_pressure;BME280_temperature;BME280_humidity;BME280_pressure;Samples;Min_cycle;Max_cycle;Signal;HPM_P1;HPM_P2
2021/08/11 00:02:05;;;;;;;5.30;2.45;;;;;;;;;;5093610;28;20028;-70
2021/08/11 00:04:31;;;;;;;6.72;2.47;;;;;;;;;;5093233;28;20069;-71
2021/08/11 00:06:57;;;;;;;3.50;2.33;;;;;;;;;;5093404;28;20039;-70
2021/08/11 00:09:23;;;;;;;3.63;2.42;;;;;;;;;;5093251;28;20475;-70
2021/08/11 00:11:49;;;;;;;6.03;2.50;;;;;;;;;;5092946;28;20045;-70
2021/08/11 00:14:15;;;;;;;4.32;2.90;;;;;;;;;;5093219;28;20062;-70
2021/08/11 00:16:41;;;;;;;3.58;2.50;;;;;;;;;;5094733;28;20027;-70
2021/08/11 00:19:07;;;;;;;3.70;2.33;;;;;;;;;;5097204;28;20024;-70
2021/08/11 00:21:33;;;;;;;4.88;2.47;;;;;;;;;;5097057;28;20107;-70
2021/08/11 00:23:59;;;;;;;3.97;2.50;;;;;;;;;;5097265;28;20102;-70
2021/08/11 00:26:24;;;;;;;2.60;2.40;;;;;;;;;;5097044;28;20020;-70
2021/08/11 00:28:50;;;;;;;2.38;2.05;;;;;;;;;;5096882;28;20479;-70
2021/08/11 00:31:16;;;;;;;7.07;2.30;;;;;;;;;;5096884;28;20082;-70
2021/08/11 00:33:42;;;;;;;6.05;2.50;;;;;;;;;;5078622;28;20032;-70
2021/08/11 00:36:08;;;;;;;3.70;2.40;;;;;;;;;;5078529;28;20020;-70
2021/08/11 00:38:34;;;;;;;3.05;2.08;;;;;;;;;;5096997;28;20030;-70
2021/08/11 00:41:00;;;;;;;2.95;2.22;;;;;;;;;;5096683;28;20024;-70
2021/08/11 00:43:26;;;;;;;4.22;2.53;;;;;;;;;;5096661;28;20426;-70
2021/08/11 00:45:52;;;;;;;4.25;2.40;;;;;;;;;;5078348;28;20028;-70
2021/08/11 00:48:20;;;;;;;2.95;2.20;;;;;;;;;;5096556;28;20028;-70
2021/08/11 00:50:46;;;;;;;3.20;2.30;;;;;;;;;;5096441;28;20547;-71
2021/08/11 00:53:14;;;;;;;6.25;2.38;;;;;;;;;;5096349;28;20119;-70
2021/08/11 00:55:41;;;;;;;3.20;2.20;;;;;;;;;;5096526;28;20412;-70
2021/08/11 00:58:09;;;;;;;3.72;2.38;;;;;;;;;;5096551;28;20066;-70
2021/08/11 01:00:36;;;;;;;3.78;2.13;;;;;;;;;;5096032;28;20494;-70
2021/08/11 01:03:04;;;;;;;5.00;2.17;;;;;;;;;;5096167;28;20031;-70
2021/08/11 01:05:30;;;;;;;3.42;2.38;;;;;;;;;;5078304;28;20070;-70
2021/08/11 01:07:57;;;;;;;5.00;2.47;;;;;;;;;;5096141;28;20024;-70
2021/08/11 01:10:24;;;;;;;7.38;2.10;;;;;;;;;;5096176;28;20409;-70
2021/08/11 01:12:50;;;;;;;4.57;2.08;;;;;;;;;;5096027;28;20131;-70
2021/08/11 01:15:17;;;;;;;5.55;2.25;;;;;;;;;;5078275;28;20106;-70
2021/08/11 01:17:43;;;;;;;4.30;1.73;;;;;;;;;;5078398;28;20028;-71
2021/08/11 01:20:09;;;;;;;4.70;2.28;;;;;;;;;;5096074;28;20077;-70
2021/08/11 01:22:38;;;;;;;5.57;2.28;;;;;;;;;;5095826;28;20024;-70
2021/08/11 01:25:27;;;;;;;3.08;1.90;;;;;;;;;;5095804;28;20024;-70
2021/08/11 01:27:55;;;;;;;4.22;2.10;;;;;;;;;;5095070;28;20036;-69
2021/08/11 01:30:24;;;;;;;2.75;2.05;;;;;;;;;;5095930;28;20066;-70
2021/08/11 01:32:50;;;;;;;4.07;2.00;;;;;;;;;;5095815;28;20044;-70
2021/08/11 01:35:18;;;;;;;3.40;2.30;;;;;;;;;;5095875;28;20027;-71
2021/08/11 01:37:45;;;;;;;3.42;1.58;;;;;;;;;;5095544;28;20060;-69
2021/08/11 01:40:12;;;;;;;6.05;2.17;;;;;;;;;;5095612;28;20024;-70
2021/08/11 01:42:43;;;;;;;4.13;1.95;;;;;;;;;;5095490;28;20069;-69
2021/08/11 01:45:12;;;;;;;4.57;2.63;;;;;;;;;;5095407;28;20020;-69
2021/08/11 01:47:42;;;;;;;3.45;2.05;;;;;;;;;;5095648;28;20471;-69
2021/08/11 01:50:10;;;;;;;4.18;2.10;;;;;;;;;;5095419;28;20149;-70
2021/08/11 01:52:40;;;;;;;3.90;2.30;;;;;;;;;;5095078;28;20411;-70
2021/08/11 01:55:08;;;;;;;3.70;1.77;;;;;;;;;;5095177;28;20016;-69
2021/08/11 01:57:34;;;;;;;12.35;1.98;;;;;;;;;;5095549;28;20024;-68
2021/08/11 02:00:01;;;;;;;11.05;2.03;;;;;;;;;;5094918;28;20058;-68
2021/08/11 02:02:28;;;;;;;4.72;1.90;;;;;;;;;;5095313;28;20095;-69
2021/08/11 02:04:54;;;;;;;5.22;2.10;;;;;;;;;;5076803;28;20462;-69
2021/08/11 02:07:20;;;;;;;3.88;2.03;;;;;;;;;;5095261;28;20020;-70
2021/08/11 02:09:46;;;;;;;5.07;2.05;;;;;;;;;;5094642;28;20028;-70
2021/08/11 02:12:12;;;;;;;3.72;2.22;;;;;;;;;;5094705;28;20093;-70
2021/08/11 02:14:40;;;;;;;4.47;2.05;;;;;;;;;;5094872;28;20028;-71
2021/08/11 02:17:06;;;;;;;3.00;2.13;;;;;;;;;;5094958;28;20024;-71
2021/08/11 02:19:33;;;;;;;6.13;2.25;;;;;;;;;;5094980;28;20078;-69
2021/08/11 02:22:02;;;;;;;3.85;2.10;;;;;;;;;;5094615;28;20070;-71
2021/08/11 02:24:39;;;;;;;6.75;2.65;;;;;;;;;;5076249;28;20167;-71
2021/08/11 02:27:06;;;;;;;2.25;2.05;;;;;;;;;;5094775;28;20085;-70
2021/08/11 02:29:32;;;;;;;3.75;2.53;;;;;;;;;;5076365;28;20028;-70
2021/08/11 02:32:18;;;;;;;6.72;2.30;;;;;;;;;;5094524;28;20028;-69
2021/08/11 02:34:53;;;;;;;8.65;2.17;;;;;;;;;;5059827;28;20032;-69
2021/08/11 02:37:23;;;;;;;3.35;2.20;;;;;;;;;;5076102;28;20055;-69
2021/08/11 02:39:57;;;;;;;2.58;1.98;;;;;;;;;;5094019;28;20046;-69
2021/08/11 02:42:26;;;;;;;3.65;1.95;;;;;;;;;;5094216;28;20051;-69
2021/08/11 02:44:54;;;;;;;5.40;2.67;;;;;;;;;;5094426;28;20019;-68
2021/08/11 02:47:21;;;;;;;3.58;1.90;;;;;;;;;;5094318;28;20028;-69
2021/08/11 02:49:47;;;;;;;4.85;2.08;;;;;;;;;;5076021;28;20458;-69
2021/08/11 02:52:14;;;;;;;6.28;2.22;;;;;;;;;;5075753;28;20036;-69
2021/08/11 02:54:40;;;;;;;6.00;2.47;;;;;;;;;;5075972;28;20024;-69
2021/08/11 02:57:06;;;;;;;2.92;2.05;;;;;;;;;;5094079;28;20081;-70
2021/08/11 02:59:32;;;;;;;3.75;1.92;;;;;;;;;;5094155;28;20181;-70
2021/08/11 03:01:58;;;;;;;7.60;2.05;;;;;;;;;;5093936;28;20032;-71
2021/08/11 03:04:25;;;;;;;3.08;2.08;;;;;;;;;;5094286;28;20020;-71
2021/08/11 03:06:51;;;;;;;4.18;2.13;;;;;;;;;;5093759;28;20035;-71
2021/08/11 03:09:17;;;;;;;3.55;2.10;;;;;;;;;;5075692;28;20115;-71
2021/08/11 03:11:43;;;;;;;2.28;1.98;;;;;;;;;;5093433;28;20052;-70
2021/08/11 03:14:13;;;;;;;4.35;2.45;;;;;;;;;;5093786;28;20050;-71
2021/08/11 03:16:39;;;;;;;5.93;2.00;;;;;;;;;;5093732;28;20016;-71
2021/08/11 03:19:06;;;;;;;5.53;2.55;;;;;;;;;;5093727;28;20077;-71
2021/08/11 03:21:32;;;;;;;5.50;2.20;;;;;;;;;;5075593;28;20468;-71
2021/08/11 03:23:58;;;;;;;3.78;2.45;;;;;;;;;;5093909;28;20048;-71
2021/08/11 03:26:24;;;;;;;2.92;2.40;;;;;;;;;;5093531;28;20039;-71
2021/08/11 03:28:50;;;;;;;4.63;2.30;;;;;;;;;;5093630;28;20020;-71
2021/08/11 03:31:16;;;;;;;3.08;2.30;;;;;;;;;;5093612;28;20036;-70
2021/08/11 03:33:42;;;;;;;3.58;2.08;;;;;;;;;;5093385;28;20074;-70
2021/08/11 03:36:08;;;;;;;3.13;2.10;;;;;;;;;;5093380;28;20020;-69
2021/08/11 03:38:34;;;;;;;5.30;2.30;;;;;;;;;;5075382;28;20027;-70
2021/08/11 03:41:00;;;;;;;5.53;2.20;;;;;;;;;;5075646;28;20020;-69
2021/08/11 03:43:26;;;;;;;7.97;2.15;;;;;;;;;;5093557;28;20069;-70
2021/08/11 03:45:52;;;;;;;3.38;2.35;;;;;;;;;;5093463;28;20024;-70
2021/08/11 03:48:18;;;;;;;12.68;2.20;;;;;;;;;;5093244;28;20035;-70
2021/08/11 03:50:44;;;;;;;12.57;2.30;;;;;;;;;;5075357;28;20028;-73
2021/08/11 03:53:11;;;;;;;6.97;2.47;;;;;;;;;;5097306;28;20564;-70
2021/08/11 03:55:37;;;;;;;3.60;2.30;;;;;;;;;;5097506;28;20012;-69
2021/08/11 03:58:04;;;;;;;6.88;2.55;;;;;;;;;;5097451;28;20028;-71
2021/08/11 04:00:30;;;;;;;4.07;2.30;;;;;;;;;;5097945;28;20027;-70
2021/08/11 04:02:56;;;;;;;6.90;2.65;;;;;;;;;;5079341;28;20050;-70
2021/08/11 04:05:22;;;;;;;6.13;2.40;;;;;;;;;;5079347;28;20459;-70
2021/08/11 04:07:48;;;;;;;4.57;2.28;;;;;;;;;;5097394;28;20028;-70
2021/08/11 04:10:14;;;;;;;4.63;2.53;;;;;;;;;;5116352;28;20046;-70
2021/08/11 04:12:40;;;;;;;4.07;2.30;;;;;;;;;;5117649;28;20126;-70
2021/08/11 04:15:06;;;;;;;8.02;2.35;;;;;;;;;;5117508;28;20016;-69
2021/08/11 04:17:32;;;;;;;4.07;2.20;;;;;;;;;;5099021;28;20024;-69
2021/08/11 04:19:58;;;;;;;6.18;2.55;;;;;;;;;;5117319;28;20065;-70
2021/08/11 04:22:24;;;;;;;4.13;2.45;;;;;;;;;;5098980;28;20100;-70
2021/08/11 04:24:50;;;;;;;6.35;2.58;;;;;;;;;;5117519;28;20062;-71
2021/08/11 04:27:16;;;;;;;5.22;2.22;;;;;;;;;;5098925;28;20055;-70
2021/08/11 04:29:42;;;;;;;6.30;2.30;;;;;;;;;;5098970;28;20023;-70
2021/08/11 04:32:08;;;;;;;4.75;2.58;;;;;;;;;;5117196;28;20035;-70
2021/08/11 04:34:34;;;;;;;5.00;2.40;;;;;;;;;;5117060;28;20141;-70
2021/08/11 04:37:00;;;;;;;4.93;2.60;;;;;;;;;;5098653;28;20028;-70
2021/08/11 04:39:26;;;;;;;4.00;2.25;;;;;;;;;;5117117;28;20069;-70
2021/08/11 04:41:52;;;;;;;3.90;2.55;;;;;;;;;;5116806;28;20027;-70
2021/08/11 04:44:18;;;;;;;3.20;1.95;;;;;;;;;;5116769;28;20085;-70
2021/08/11 04:46:44;;;;;;;4.50;2.47;;;;;;;;;;5116972;28;20066;-70
2021/08/11 04:49:10;;;;;;;3.20;2.38;;;;;;;;;;5117240;28;20103;-70
2021/08/11 04:51:36;;;;;;;9.32;2.85;;;;;;;;;;5116847;28;20107;-70
2021/08/11 04:54:02;;;;;;;3.15;2.10;;;;;;;;;;5116722;28;20061;-69
2021/08/11 04:56:28;;;;;;;3.75;2.22;;;;;;;;;;5116641;28;20024;-70
2021/08/11 04:58:54;;;;;;;3.90;2.45;;;;;;;;;;5116528;28;20064;-70
2021/08/11 05:01:20;;;;;;;5.55;2.65;;;;;;;;;;5116545;28;20026;-70
2021/08/11 05:03:46;;;;;;;5.38;2.67;;;;;;;;;;5116366;28;20027;-69
2021/08/11 05:06:12;;;;;;;4.47;2.38;;;;;;;;;;5097978;28;20027;-69
2021/08/11 05:08:38;;;;;;;4.28;2.58;;;;;;;;;;5097952;28;20027;-69
2021/08/11 05:11:04;;;;;;;4.15;2.38;;;;;;;;;;5097937;28;20084;-69
2021/08/11 05:13:30;;;;;;;3.55;2.25;;;;;;;;;;5116082;28;20093;-69
2021/08/11 05:15:57;;;;;;;7.22;2.20;;;;;;;;;;5116187;28;20027;-69
2021/08/11 05:18:23;;;;;;;2.92;2.10;;;;;;;;;;5116280;28;20098;-68
2021/08/11 05:20:49;;;;;;;10.32;2.95;;;;;;;;;;5097492;28;20165;-71
2021/08/11 05:23:14;;;;;;;11.45;2.90;;;;;;;;;;5115577;28;20042;-70
2021/08/11 05:25:43;;;;;;;8.07;2.55;;;;;;;;;;5116237;28;20027;-71
2021/08/11 05:28:10;;;;;;;27.85;3.20;;;;;;;;;;5097658;28;20130;-70
2021/08/11 05:30:39;;;;;;;12.43;2.35;;;;;;;;;;5097827;28;20024;-69
2021/08/11 05:33:05;;;;;;;12.75;2.45;;;;;;;;;;5097387;28;20043;-70
2021/08/11 05:35:31;;;;;;;16.65;2.60;;;;;;;;;;5091671;28;20077;-72
2021/08/11 05:37:57;;;;;;;8.38;2.50;;;;;;;;;;5076984;28;20403;-71
2021/08/11 05:40:23;;;;;;;6.55;2.22;;;;;;;;;;5095050;28;20521;-69
2021/08/11 05:42:49;;;;;;;9.60;2.35;;;;;;;;;;5095240;28;20028;-70
2021/08/11 05:45:15;;;;;;;10.48;2.60;;;;;;;;;;5095228;28;20028;-69
2021/08/11 05:47:42;;;;;;;6.30;2.70;;;;;;;;;;5094823;28;20021;-71
2021/08/11 05:50:08;;;;;;;11.23;3.10;;;;;;;;;;5094949;28;20028;-69
2021/08/11 05:52:34;;;;;;;20.42;2.70;;;;;;;;;;5094927;28;20036;-72
2021/08/11 05:55:00;;;;;;;41.85;3.35;;;;;;;;;;5076953;28;20031;-70
2021/08/11 05:57:26;;;;;;;34.70;3.35;;;;;;;;;;5095304;28;20035;-68
2021/08/11 05:59:52;;;;;;;32.28;3.83;;;;;;;;;;5094925;28;20099;-70
2021/08/11 06:02:18;;;;;;;22.25;3.75;;;;;;;;;;5095358;28;20149;-71
2021/08/11 06:04:44;;;;;;;18.50;3.72;;;;;;;;;;5094926;28;20066;-69
2021/08/11 06:07:10;;;;;;;15.55;3.63;;;;;;;;;;5094854;28;20031;-69
2021/08/11 06:09:36;;;;;;;20.95;4.82;;;;;;;;;;5094570;28;20024;-69
2021/08/11 06:12:02;;;;;;;19.70;5.22;;;;;;;;;;5094597;28;20043;-69
2021/08/11 06:14:28;;;;;;;11.65;4.57;;;;;;;;;;5075963;28;20044;-69
2021/08/11 06:16:54;;;;;;;31.33;4.80;;;;;;;;;;5094795;28;20020;-69
2021/08/11 06:19:20;;;;;;;26.05;5.85;;;;;;;;;;5094537;28;20024;-69
2021/08/11 06:21:46;;;;;;;7.75;4.20;;;;;;;;;;5076420;28;20016;-69
2021/08/11 06:24:12;;;;;;;15.02;5.07;;;;;;;;;;5094574;28;20032;-69
2021/08/11 06:26:38;;;;;;;11.32;4.72;;;;;;;;;;5094645;28;20099;-68
2021/08/11 06:29:04;;;;;;;22.13;5.90;;;;;;;;;;5094346;28;20028;-69
2021/08/11 06:31:30;;;;;;;15.07;5.57;;;;;;;;;;5102432;28;20038;-69
2021/08/11 06:33:57;;;;;;;15.77;7.22;;;;;;;;;;5094039;28;20043;-69
2021/08/11 06:36:23;;;;;;;17.20;7.55;;;;;;;;;;5093850;28;20459;-68
2021/08/11 06:38:49;;;;;;;15.35;8.38;;;;;;;;;;5075743;28;20413;-69
2021/08/11 06:41:16;;;;;;;20.33;8.15;;;;;;;;;;5093892;28;20023;-69
2021/08/11 06:43:45;;;;;;;18.17;8.43;;;;;;;;;;5093887;28;20024;-69
2021/08/11 06:46:11;;;;;;;17.20;8.73;;;;;;;;;;5093849;28;20649;-69
2021/08/11 06:48:38;;;;;;;19.30;8.48;;;;;;;;;;5094081;28;20149;-69
2021/08/11 06:51:05;;;;;;;16.60;7.90;;;;;;;;;;5093721;28;20074;-69
2021/08/11 06:53:31;;;;;;;21.98;7.93;;;;;;;;;;5093628;28;20051;-64
2021/08/11 06:55:57;;;;;;;21.70;8.23;;;;;;;;;;5092187;28;20682;-65
2021/08/11 06:58:23;;;;;;;17.85;8.40;;;;;;;;;;5089334;28;20024;-66
2021/08/11 07:00:49;;;;;;;17.55;7.85;;;;;;;;;;5093025;28;20107;-65
2021/08/11 07:03:17;;;;;;;15.73;8.13;;;;;;;;;;5075266;28;20042;-65
2021/08/11 07:05:43;;;;;;;22.08;9.68;;;;;;;;;;5093323;28;20234;-65
2021/08/11 07:08:09;;;;;;;21.67;9.50;;;;;;;;;;5093256;28;20032;-66
2021/08/11 07:10:35;;;;;;;18.17;8.75;;;;;;;;;;5093387;28;20076;-65
2021/08/11 07:13:01;;;;;;;21.73;9.13;;;;;;;;;;5092975;28;20401;-65
2021/08/11 07:15:27;;;;;;;25.17;8.90;;;;;;;;;;5074874;28;20020;-65
2021/08/11 07:17:54;;;;;;;18.63;9.02;;;;;;;;;;5077063;28;20032;-65
2021/08/11 07:20:20;;;;;;;20.00;9.18;;;;;;;;;;5072859;28;20021;-66
2021/08/11 07:22:46;;;;;;;21.58;10.55;;;;;;;;;;5072786;28;20031;-66
2021/08/11 07:25:13;;;;;;;22.65;9.77;;;;;;;;;;5072403;28;20025;-65
2021/08/11 07:27:38;;;;;;;21.45;10.77;;;;;;;;;;5072412;28;20036;-65
2021/08/11 07:30:05;;;;;;;21.50;9.77;;;;;;;;;;5072738;28;20030;-65
2021/08/11 07:32:31;;;;;;;21.25;9.60;;;;;;;;;;5083582;28;20043;-65
2021/08/11 07:34:57;;;;;;;15.73;8.88;;;;;;;;;;5074650;28;20024;-66
2021/08/11 07:37:23;;;;;;;20.58;9.48;;;;;;;;;;5092969;28;20549;-65
2021/08/11 07:39:49;;;;;;;20.73;9.52;;;;;;;;;;5092761;28;20036;-65
2021/08/11 07:42:15;;;;;;;16.77;8.77;;;;;;;;;;5093001;28;20028;-67
2021/08/11 07:44:41;;;;;;;20.02;9.73;;;;;;;;;;5074945;28;20521;-67
2021/08/11 07:47:07;;;;;;;21.55;9.98;;;;;;;;;;5093150;28;20064;-66
2021/08/11 07:49:33;;;;;;;20.17;9.75;;;;;;;;;;5093244;28;20020;-66
2021/08/11 07:51:59;;;;;;;22.10;10.35;;;;;;;;;;5092971;28;20066;-66
2021/08/11 07:54:25;;;;;;;23.95;10.40;;;;;;;;;;5093275;28;20787;-66
2021/08/11 07:56:51;;;;;;;16.70;9.70;;;;;;;;;;5093077;28;20033;-66
2021/08/11 07:59:17;;;;;;;16.92;9.60;;;;;;;;;;5093077;28;20051;-66
2021/08/11 08:01:43;;;;;;;17.48;9.07;;;;;;;;;;5093171;28;20028;-66
2021/08/11 08:04:09;;;;;;;18.50;9.63;;;;;;;;;;5075189;28;20028;-67
2021/08/11 08:06:35;;;;;;;21.33;10.00;;;;;;;;;;5093199;28;20024;-66
2021/08/11 08:09:01;;;;;;;24.95;9.77;;;;;;;;;;5093081;28;20463;-66
2021/08/11 08:11:27;;;;;;;24.50;9.95;;;;;;;;;;5092702;28;20054;-68
2021/08/11 08:13:53;;;;;;;25.30;9.48;;;;;;;;;;5093224;28;20032;-66
2021/08/11 08:16:19;;;;;;;19.60;9.07;;;;;;;;;;5093156;28;20035;-68
2021/08/11 08:18:45;;;;;;;16.13;8.38;;;;;;;;;;5092902;28;20032;-69
2021/08/11 08:21:11;;;;;;;18.25;8.48;;;;;;;;;;5092984;28;20023;-69
2021/08/11 08:23:38;;;;;;;16.92;7.95;;;;;;;;;;5092941;28;20028;-66
2021/08/11 08:26:05;;;;;;;16.67;7.72;;;;;;;;;;5093007;28;20020;-66
2021/08/11 08:28:31;;;;;;;16.80;7.88;;;;;;;;;;5074751;28;20028;-66
2021/08/11 08:30:57;;;;;;;17.10;7.78;;;;;;;;;;5092812;28;20372;-66
2021/08/11 08:33:23;;;;;;;18.20;8.57;;;;;;;;;;5092924;28;20144;-66
2021/08/11 08:35:49;;;;;;;14.20;7.80;;;;;;;;;;5092702;28;20435;-66
2021/08/11 08:38:18;;;;;;;16.77;8.30;;;;;;;;;;5095304;28;20509;-66
2021/08/11 08:40:46;;;;;;;15.68;7.63;;;;;;;;;;5078345;28;20024;-66
2021/08/11 08:43:11;;;;;;;20.90;8.93;;;;;;;;;;5096623;28;20020;-66
2021/08/11 08:45:37;;;;;;;19.00;8.10;;;;;;;;;;5096490;28;20032;-66
2021/08/11 08:48:04;;;;;;;15.82;8.13;;;;;;;;;;5096319;28;20023;-67
2021/08/11 08:50:31;;;;;;;18.17;8.45;;;;;;;;;;5096434;28;20016;-66
2021/08/11 08:52:59;;;;;;;18.88;8.82;;;;;;;;;;5096256;28;20035;-66
2021/08/11 08:55:25;;;;;;;23.65;7.90;;;;;;;;;;5096265;28;20098;-66
2021/08/11 08:57:54;;;;;;;20.85;8.75;;;;;;;;;;5096124;28;20028;-70
2021/08/11 09:00:20;;;;;;;23.20;7.70;;;;;;;;;;5078237;28;20016;-70
2021/08/11 09:02:46;;;;;;;26.05;8.45;;;;;;;;;;5096233;28;20032;-71
2021/08/11 09:05:12;;;;;;;25.05;7.80;;;;;;;;;;5077336;28;20016;-64
2021/08/11 09:07:43;;;;;;;21.23;7.07;;;;;;;;;;5095559;28;20539;-63
2021/08/11 09:10:18;;;;;;;29.00;7.88;;;;;;;;;;5095533;28;20390;-63
2021/08/11 09:12:44;;;;;;;25.40;7.38;;;;;;;;;;5095134;28;20044;-63
2021/08/11 09:15:27;;;;;;;28.20;7.22;;;;;;;;;;5095683;28;20410;-63
2021/08/11 09:17:53;;;;;;;30.50;7.63;;;;;;;;;;5095178;28;20024;-62
2021/08/11 09:20:26;;;;;;;14.95;6.95;;;;;;;;;;5095165;28;20020;-63
2021/08/11 09:22:53;;;;;;;14.43;6.50;;;;;;;;;;5095234;28;20079;-62
2021/08/11 09:25:19;;;;;;;26.90;7.50;;;;;;;;;;5095334;28;20020;-62
2021/08/11 09:27:46;;;;;;;16.30;7.32;;;;;;;;;;5095179;28;20366;-63
2021/08/11 09:30:22;;;;;;;15.95;6.90;;;;;;;;;;5095137;28;20035;-62
2021/08/11 09:33:05;;;;;;;20.85;7.95;;;;;;;;;;5094853;28;20070;-62
2021/08/11 09:35:31;;;;;;;12.35;6.63;;;;;;;;;;5094975;28;20370;-63
2021/08/11 09:37:58;;;;;;;14.52;6.97;;;;;;;;;;5095261;28;20455;-62
2021/08/11 09:40:27;;;;;;;15.85;6.72;;;;;;;;;;5095156;28;20027;-63
2021/08/11 09:42:58;;;;;;;15.82;6.93;;;;;;;;;;5094748;28;20035;-63
2021/08/11 09:45:24;;;;;;;12.60;6.07;;;;;;;;;;5094878;28;20099;-63
2021/08/11 09:47:55;;;;;;;12.15;6.20;;;;;;;;;;5094664;28;20031;-63
2021/08/11 09:50:31;;;;;;;12.85;6.57;;;;;;;;;;5093821;28;20024;-63
2021/08/11 09:52:58;;;;;;;10.00;6.20;;;;;;;;;;5094636;28;20062;-63
2021/08/11 09:55:24;;;;;;;11.65;6.03;;;;;;;;;;5094650;28;20035;-62
2021/08/11 09:57:50;;;;;;;10.38;5.85;;;;;;;;;;5094549;28;20032;-62
2021/08/11 10:00:16;;;;;;;12.15;6.03;;;;;;;;;;5094588;28;20021;-63
2021/08/11 10:02:42;;;;;;;12.57;5.80;;;;;;;;;;5094649;28;20073;-63
2021/08/11 10:05:12;;;;;;;9.27;5.53;;;;;;;;;;5094701;28;20027;-63
2021/08/11 10:07:38;;;;;;;11.60;5.70;;;;;;;;;;5094547;28;20032;-63
2021/08/11 10:10:08;;;;;;;9.75;5.40;;;;;;;;;;5093882;28;20082;-62
2021/08/11 10:12:35;;;;;;;12.88;5.90;;;;;;;;;;5114386;28;20112;-63
2021/08/11 10:15:06;;;;;;;9.95;6.13;;;;;;;;;;5114603;28;20098;-63
2021/08/11 10:17:34;;;;;;;11.55;5.75;;;;;;;;;;5096145;28;20024;-63
2021/08/11 10:20:02;;;;;;;16.77;6.28;;;;;;;;;;5114717;28;20085;-63
2021/08/11 10:22:28;;;;;;;10.15;5.63;;;;;;;;;;5114404;28;20023;-63
2021/08/11 10:24:55;;;;;;;11.05;5.97;;;;;;;;;;5114406;28;20019;-63
2021/08/11 10:27:21;;;;;;;11.27;5.35;;;;;;;;;;5114406;28;20413;-63
2021/08/11 10:29:48;;;;;;;9.18;5.53;;;;;;;;;;5114409;28;20026;-63
2021/08/11 10:32:14;;;;;;;11.85;5.70;;;;;;;;;;5096150;28;20351;-63
2021/08/11 10:34:40;;;;;;;11.65;5.68;;;;;;;;;;5113993;28;20106;-63
2021/08/11 10:37:07;;;;;;;11.57;5.60;;;;;;;;;;5114466;28;20028;-63
2021/08/11 10:39:33;;;;;;;12.98;6.00;;;;;;;;;;5114140;28;20027;-64
2021/08/11 10:42:07;;;;;;;14.55;5.32;;;;;;;;;;5114144;28;20394;-63
2021/08/11 10:44:33;;;;;;;11.65;5.15;;;;;;;;;;5114132;28;20030;-64
2021/08/11 10:47:00;;;;;;;11.55;5.68;;;;;;;;;;5113946;28;20481;-63
2021/08/11 10:49:28;;;;;;;13.35;5.32;;;;;;;;;;5113993;28;20034;-63
2021/08/11 10:51:59;;;;;;;11.88;5.22;;;;;;;;;;5113940;28;20027;-63
2021/08/11 10:54:25;;;;;;;10.27;5.30;;;;;;;;;;5095704;28;20077;-63
2021/08/11 10:56:51;;;;;;;9.38;5.30;;;;;;;;;;5114010;28;20051;-64
2021/08/11 10:59:28;;;;;;;11.77;4.93;;;;;;;;;;5095474;28;20869;-63
2021/08/11 11:01:57;;;;;;;12.85;5.00;;;;;;;;;;5113650;28;20024;-64
2021/08/11 11:04:38;;;;;;;9.25;5.07;;;;;;;;;;5113716;28;20019;-63
2021/08/11 11:07:10;;;;;;;16.13;6.28;;;;;;;;;;5113711;28;20028;-63
2021/08/11 11:09:36;;;;;;;;;;;;;;;;;;5114237;28;20031;-64
2021/08/11 11:12:22;;;;;;;14.35;5.50;;;;;;;;;;5113104;28;19923;-65
2021/08/11 11:15:00;;;;;;;12.38;5.53;;;;;;;;;;5095931;28;20521;-65
2021/08/11 11:17:36;;;;;;;13.27;5.43;;;;;;;;;;5113279;28;20057;-65
2021/08/11 11:20:06;;;;;;;17.27;5.85;;;;;;;;;;5113577;28;20016;-64
2021/08/11 11:22:42;;;;;;;10.98;6.60;;;;;;;;;;5113632;28;20055;-65
2021/08/11 11:25:09;;;;;;;14.90;5.82;;;;;;;;;;5113510;28;20103;-65
2021/08/11 11:27:55;;;;;;;12.60;6.25;;;;;;;;;;5113358;28;20439;-65
2021/08/11 11:30:27;;;;;;;14.20;5.82;;;;;;;;;;5095037;28;20077;-64
2021/08/11 11:32:54;;;;;;;9.85;5.40;;;;;;;;;;5080708;28;20036;-63
2021/08/11 11:35:20;;;;;;;15.75;5.53;;;;;;;;;;5074678;28;20038;-64
2021/08/11 11:38:05;;;;;;;13.82;5.70;;;;;;;;;;5074863;28;20024;-64
2021/08/11 11:40:31;;;;;;;9.55;5.50;;;;;;;;;;5092883;28;20020;-64
2021/08/11 11:43:16;;;;;;;16.35;5.53;;;;;;;;;;5092813;28;20537;-63
2021/08/11 11:45:44;;;;;;;11.77;5.53;;;;;;;;;;5092979;28;20527;-63
2021/08/11 11:48:10;;;;;;;12.65;5.28;;;;;;;;;;5092587;28;20103;-63
2021/08/11 11:50:42;;;;;;;13.48;5.43;;;;;;;;;;5092855;28;20078;-63
2021/08/11 11:53:11;;;;;;;8.37;5.00;;;;;;;;;;5092728;28;20028;-63
2021/08/11 11:55:39;;;;;;;10.00;4.88;;;;;;;;;;5092431;28;20280;-64
2021/08/11 11:58:09;;;;;;;11.30;5.07;;;;;;;;;;5092783;28;20059;-64
2021/08/11 12:00:36;;;;;;;12.75;5.13;;;;;;;;;;5092517;28;20035;-63
2021/08/11 12:03:02;;;;;;;10.63;4.40;;;;;;;;;;5092554;28;20024;-64
2021/08/11 12:05:28;;;;;;;11.45;5.00;;;;;;;;;;5092621;28;20032;-64
2021/08/11 12:07:55;;;;;;;12.52;4.85;;;;;;;;;;5092819;28;20080;-65
2021/08/11 12:10:28;;;;;;;9.02;5.00;;;;;;;;;;5112482;28;20016;-64
2021/08/11 12:13:01;;;;;;;10.68;4.70;;;;;;;;;;5115148;28;20561;-64
2021/08/11 12:15:33;;;;;;;11.63;4.78;;;;;;;;;;5098761;28;20043;-63
2021/08/11 12:18:00;;;;;;;10.10;4.90;;;;;;;;;;5097803;28;20028;-64
2021/08/11 12:20:30;;;;;;;12.02;4.80;;;;;;;;;;5096405;28;20111;-64
2021/08/11 12:22:57;;;;;;;7.60;4.55;;;;;;;;;;5096450;28;20028;-65
2021/08/11 12:25:26;;;;;;;10.45;4.80;;;;;;;;;;5096420;28;20161;-63
2021/08/11 12:28:07;;;;;;;11.35;5.20;;;;;;;;;;5096240;28;20118;-64
2021/08/11 12:30:34;;;;;;;9.23;4.90;;;;;;;;;;5096178;28;20422;-63
2021/08/11 12:33:01;;;;;;;8.35;5.00;;;;;;;;;;5095974;28;20505;-64
2021/08/11 12:35:27;;;;;;;9.43;4.60;;;;;;;;;;5086672;28;20120;-63
2021/08/11 12:37:53;;;;;;;11.25;5.03;;;;;;;;;;5096091;28;20032;-63
2021/08/11 12:40:38;;;;;;;13.00;5.47;;;;;;;;;;5096037;28;20035;-63
2021/08/11 12:43:05;;;;;;;12.65;5.68;;;;;;;;;;5096146;28;20395;-64
2021/08/11 12:45:50;;;;;;;12.40;5.50;;;;;;;;;;5096039;28;20077;-63
2021/08/11 12:48:23;;;;;;;14.15;6.22;;;;;;;;;;5094587;28;20020;-64
2021/08/11 12:50:49;;;;;;;12.50;6.25;;;;;;;;;;5095999;28;20074;-63
2021/08/11 12:53:25;;;;;;;13.30;6.68;;;;;;;;;;5095786;28;20036;-63
2021/08/11 12:56:05;;;;;;;10.02;6.45;;;;;;;;;;5095475;28;20110;-63
2021/08/11 12:58:50;;;;;;;15.70;6.85;;;;;;;;;;5095514;28;20111;-64
2021/08/11 13:01:35;;;;;;;14.93;7.43;;;;;;;;;;5095734;28;20074;-65
2021/08/11 13:04:02;;;;;;;11.90;6.38;;;;;;;;;;5095694;28;20024;-63
2021/08/11 13:06:36;;;;;;;17.08;7.20;;;;;;;;;;5095585;28;20380;-64
2021/08/11 13:09:02;;;;;;;18.83;8.07;;;;;;;;;;5104615;28;20023;-63
2021/08/11 13:11:46;;;;;;;12.32;6.97;;;;;;;;;;5115565;28;20134;-63
2021/08/11 13:14:12;;;;;;;17.27;7.72;;;;;;;;;;5115851;28;20470;-63
2021/08/11 13:16:38;;;;;;;11.77;7.00;;;;;;;;;;5115830;28;20034;-64
2021/08/11 13:19:17;;;;;;;11.98;6.90;;;;;;;;;;5115959;28;20027;-64
2021/08/11 13:21:43;;;;;;;12.95;6.68;;;;;;;;;;5115924;28;20370;-64
2021/08/11 13:24:09;;;;;;;13.80;6.93;;;;;;;;;;5114496;28;20023;-63
2021/08/11 13:26:35;;;;;;;12.90;6.45;;;;;;;;;;5097359;28;20032;-63
2021/08/11 13:29:01;;;;;;;11.27;6.38;;;;;;;;;;5115555;28;20028;-64
2021/08/11 13:31:27;;;;;;;12.52;6.43;;;;;;;;;;5113398;28;20051;-64
2021/08/11 13:33:53;;;;;;;12.45;6.38;;;;;;;;;;5076972;28;20414;-64
2021/08/11 13:36:18;;;;;;;12.65;7.07;;;;;;;;;;5094830;28;20020;-63
2021/08/11 13:38:44;;;;;;;14.73;6.20;;;;;;;;;;5077038;28;20059;-63
2021/08/11 13:41:10;;;;;;;12.10;6.30;;;;;;;;;;5095033;28;20029;-64
2021/08/11 13:43:36;;;;;;;12.43;6.43;;;;;;;;;;5076878;28;20024;-64
2021/08/11 13:46:03;;;;;;;17.52;6.82;;;;;;;;;;5076563;28;20119;-64
2021/08/11 13:48:29;;;;;;;16.98;6.88;;;;;;;;;;5094878;28;20024;-64
2021/08/11 13:50:55;;;;;;;15.63;6.57;;;;;;;;;;5076232;28;20100;-63
2021/08/11 13:53:21;;;;;;;15.30;6.35;;;;;;;;;;5094739;28;20064;-64
2021/08/11 13:55:46;;;;;;;14.10;5.90;;;;;;;;;;5094717;28;20048;-63
2021/08/11 13:58:12;;;;;;;11.57;5.85;;;;;;;;;;5094582;28;20024;-63
2021/08/11 14:00:38;;;;;;;14.60;6.13;;;;;;;;;;5094443;28;20032;-64
2021/08/11 14:03:04;;;;;;;11.05;6.25;;;;;;;;;;5076497;28;20368;-63
2021/08/11 14:05:32;;;;;;;12.75;5.80;;;;;;;;;;5094329;28;20052;-64
2021/08/11 14:07:58;;;;;;;11.45;5.63;;;;;;;;;;5094615;28;20072;-64
2021/08/11 14:10:24;;;;;;;12.07;5.60;;;;;;;;;;5074178;28;20035;-64
2021/08/11 14:12:50;;;;;;;12.63;5.63;;;;;;;;;;5073530;28;20136;-64
2021/08/11 14:15:16;;;;;;;12.40;5.68;;;;;;;;;;5074228;28;20395;-65
2021/08/11 14:17:42;;;;;;;16.02;5.47;;;;;;;;;;5073847;28;20039;-64
2021/08/11 14:20:08;;;;;;;11.77;5.45;;;;;;;;;;5056061;28;20025;-64
2021/08/11 14:22:34;;;;;;;12.45;4.88;;;;;;;;;;5073676;28;20467;-63
2021/08/11 14:25:00;;;;;;;14.27;5.53;;;;;;;;;;5073847;28;20028;-64
2021/08/11 14:27:26;;;;;;;10.93;4.50;;;;;;;;;;5073711;28;20360;-64
2021/08/11 14:29:52;;;;;;;10.65;4.40;;;;;;;;;;5073615;28;20039;-63
2021/08/11 14:32:18;;;;;;;10.30;4.82;;;;;;;;;;5091517;28;20032;-65
2021/08/11 14:34:44;;;;;;;12.85;4.82;;;;;;;;;;5093606;28;20429;-64
2021/08/11 14:37:10;;;;;;;10.38;4.60;;;;;;;;;;5093776;28;20016;-64
2021/08/11 14:39:36;;;;;;;12.65;4.88;;;;;;;;;;5094238;28;20035;-63